Time;durP1;ratioP1;P1;durP2;ratioP2;P2;SDS_P1;SDS_P2;PMS_P1;PMS_P2;Temp;Humidity;BMP_temperature;BMP_pressure;BME280_temperature;BME280_humidity;BME280_pressure;Samples;Min_cycle;Max_cycle;Signal;HPM_P1;HPM_P2
2024/01/27 00:02:06;;;;;;;25.50;7.25;;;;;;;1.77;100.00;103526.19;5287157;28;20042;-72
2024/01/27 00:04:37;;;;;;;23.95;7.45;;;;;;;1.64;100.00;103526.59;5287226;28;20031;-72
2024/01/27 00:07:07;;;;;;;29.55;7.10;;;;;;;1.58;100.00;103526.75;5286956;28;20059;-74
2024/01/27 00:09:37;;;;;;;21.15;6.45;;;;;;;1.56;100.00;103534.75;5286697;28;20031;-72
2024/01/27 00:12:08;;;;;;;34.25;8.00;;;;;;;1.53;100.00;103522.47;5287238;28;20084;-73
2024/01/27 00:14:39;;;;;;;27.65;7.35;;;;;;;1.61;100.00;103527.56;5287310;27;20027;-72
2024/01/27 00:17:09;;;;;;;23.67;6.93;;;;;;;1.72;100.00;103525.47;5286506;27;20058;-74
2024/01/27 00:19:40;;;;;;;24.88;7.45;;;;;;;1.73;100.00;103526.31;5287131;27;20054;-73
2024/01/27 00:22:10;;;;;;;30.42;8.68;;;;;;;1.69;100.00;103524.66;5273852;28;20032;-73
2024/01/27 00:24:41;;;;;;;19.20;6.85;;;;;;;1.60;100.00;103527.56;5287085;28;20031;-72
2024/01/27 00:27:11;;;;;;;17.92;7.75;;;;;;;1.47;100.00;103520.00;5279525;27;20046;-72
2024/01/27 00:29:42;;;;;;;22.60;7.65;;;;;;;1.28;100.00;103530.19;5280669;28;20034;-73
2024/01/27 00:32:12;;;;;;;24.88;7.30;;;;;;;1.19;100.00;103526.91;5286409;28;20055;-72
2024/01/27 00:34:43;;;;;;;24.15;7.78;;;;;;;1.10;100.00;103535.94;5286391;27;20030;-72
2024/01/27 00:37:13;;;;;;;20.38;7.45;;;;;;;1.01;100.00;103533.56;5285568;28;20084;-72
2024/01/27 00:39:45;;;;;;;18.55;7.03;;;;;;;0.97;100.00;103527.47;5287158;27;20098;-74
2024/01/27 00:42:16;;;;;;;33.65;8.68;;;;;;;1.09;100.00;103538.63;5284569;27;20023;-72
2024/01/27 00:44:46;;;;;;;30.15;7.75;;;;;;;1.18;100.00;103538.41;5281176;27;20042;-72
2024/01/27 00:47:17;;;;;;;26.75;7.80;;;;;;;1.23;100.00;103542.66;5285375;27;20034;-72
2024/01/27 00:49:47;;;;;;;23.20;6.50;;;;;;;1.44;100.00;103529.78;5286901;27;20024;-72
2024/01/27 00:52:17;;;;;;;36.42;7.97;;;;;;;1.58;100.00;103530.28;5285975;27;20460;-72
2024/01/27 00:54:48;;;;;;;22.08;6.93;;;;;;;1.61;100.00;103532.84;5286814;27;20032;-73
2024/01/27 00:57:18;;;;;;;37.03;7.57;;;;;;;1.58;100.00;103524.97;5285236;28;20034;-72
2024/01/27 00:59:49;;;;;;;30.73;6.97;;;;;;;1.59;100.00;103518.78;5288344;27;20035;-72
2024/01/27 01:02:19;;;;;;;29.02;8.20;;;;;;;1.61;100.00;103526.66;5285615;28;20031;-73
2024/01/27 01:04:50;;;;;;;23.65;6.70;;;;;;;1.58;100.00;103519.69;5280240;28;20479;-73
2024/01/27 01:07:20;;;;;;;22.42;7.22;;;;;;;1.54;100.00;103526.84;5284749;28;20354;-74
2024/01/27 01:09:51;;;;;;;22.95;7.50;;;;;;;1.49;100.00;103514.66;5286293;28;20038;-72
2024/01/27 01:12:21;;;;;;;17.85;6.85;;;;;;;1.52;100.00;103518.09;5283809;28;20106;-72
2024/01/27 01:14:52;;;;;;;22.33;6.72;;;;;;;1.59;100.00;103512.63;5286197;28;20035;-71
2024/01/27 01:17:23;;;;;;;28.15;6.75;;;;;;;1.67;100.00;103516.78;5286373;27;20051;-72
2024/01/27 01:19:53;;;;;;;24.30;6.90;;;;;;;1.54;100.00;103526.84;5290924;27;20500;-72
2024/01/27 01:22:24;;;;;;;31.38;7.30;;;;;;;1.48;100.00;103512.91;5285238;28;20043;-71
2024/01/27 01:24:54;;;;;;;19.80;6.75;;;;;;;1.43;100.00;103517.47;5286362;28;20036;-71
2024/01/27 01:27:24;;;;;;;27.67;8.00;;;;;;;1.32;100.00;103519.53;5292720;27;20063;-73
2024/01/27 01:29:55;;;;;;;25.88;7.15;;;;;;;1.21;100.00;103523.34;5296793;27;20117;-71
2024/01/27 01:32:25;;;;;;;26.30;7.07;;;;;;;1.16;100.00;103527.03;5298610;27;20028;-72
2024/01/27 01:34:56;;;;;;;26.58;7.30;;;;;;;1.05;100.00;103527.28;5282320;28;20023;-71
2024/01/27 01:37:26;;;;;;;19.58;7.43;;;;;;;0.96;100.00;103522.25;5284706;27;20024;-72
2024/01/27 01:39:57;;;;;;;20.85;7.38;;;;;;;0.97;100.00;103531.91;5297941;27;20169;-73
2024/01/27 01:42:28;;;;;;;19.95;7.60;;;;;;;1.02;100.00;103528.22;5286960;27;20384;-72
2024/01/27 01:44:58;;;;;;;19.58;7.32;;;;;;;1.04;100.00;103526.41;5296507;27;20038;-71
2024/01/27 01:47:29;;;;;;;33.00;8.88;;;;;;;1.00;100.00;103534.44;5298838;27;20034;-71
2024/01/27 01:50:00;;;;;;;20.58;7.05;;;;;;;0.96;100.00;103525.75;5289531;27;20027;-72
2024/01/27 01:52:31;;;;;;;21.35;7.20;;;;;;;0.93;100.00;103530.22;5292691;27;20031;-72
2024/01/27 01:55:01;;;;;;;20.85;7.40;;;;;;;0.83;100.00;103532.25;5295548;27;20218;-73
2024/01/27 01:57:33;;;;;;;25.20;6.78;;;;;;;0.82;100.00;103538.44;5292969;27;20157;-71
2024/01/27 02:00:04;;;;;;;21.73;6.63;;;;;;;0.80;100.00;103531.44;5300972;27;20114;-73
2024/01/27 02:02:34;;;;;;;27.25;7.05;;;;;;;0.74;100.00;103533.31;5291309;27;20157;-72
2024/01/27 02:05:05;;;;;;;26.67;7.50;;;;;;;0.70;100.00;103526.41;5291637;27;20042;-73
2024/01/27 02:07:36;;;;;;;19.38;6.55;;;;;;;0.67;100.00;103517.66;5299838;27;20027;-72
2024/01/27 02:10:13;;;;;;;27.88;7.88;;;;;;;0.78;100.00;103516.50;5289226;27;20031;-71
2024/01/27 02:12:45;;;;;;;26.55;7.75;;;;;;;0.83;100.00;103526.09;5288530;27;20023;-72
2024/01/27 02:15:20;;;;;;;;;;;;;;;0.83;100.00;103534.88;5286597;27;20087;-72
2024/01/27 02:17:50;;;;;;;21.33;6.03;;;;;;;0.77;100.00;103538.53;5294860;27;19915;-71
2024/01/27 02:20:23;;;;;;;17.77;6.57;;;;;;;0.61;100.00;103531.03;5297218;27;20091;-71
2024/01/27 02:22:53;;;;;;;27.52;7.03;;;;;;;0.52;100.00;103525.06;5296753;27;20392;-71
2024/01/27 02:25:24;;;;;;;20.48;6.80;;;;;;;0.46;100.00;103533.13;5298213;27;20076;-71
2024/01/27 02:27:54;;;;;;;19.42;7.43;;;;;;;0.48;100.00;103527.78;5300492;27;20157;-73
2024/01/27 02:30:25;;;;;;;21.98;6.72;;;;;;;0.45;100.00;103533.13;5296178;27;20028;-73
2024/01/27 02:32:58;;;;;;;22.60;7.07;;;;;;;0.39;100.00;103534.16;5295671;27;20039;-74
2024/01/27 02:35:28;;;;;;;25.02;7.35;;;;;;;0.42;100.00;103547.31;5290228;28;20397;-73
2024/01/27 02:37:59;;;;;;;20.35;7.28;;;;;;;0.34;100.00;103551.88;5288248;28;20012;-75
2024/01/27 02:40:29;;;;;;;22.58;8.35;;;;;;;0.40;100.00;103543.84;5290077;28;20028;-73
2024/01/27 02:43:00;;;;;;;24.75;7.53;;;;;;;0.37;100.00;103553.59;5298521;28;20061;-73
2024/01/27 02:45:30;;;;;;;20.17;7.35;;;;;;;0.32;100.00;103545.78;5301536;27;20059;-74
2024/01/27 02:48:00;;;;;;;20.60;7.40;;;;;;;0.27;100.00;103552.06;5298195;27;20023;-73
2024/01/27 02:50:31;;;;;;;26.25;7.38;;;;;;;0.25;100.00;103552.06;5290924;28;20093;-73
2024/01/27 02:53:01;;;;;;;22.85;7.07;;;;;;;0.27;100.00;103554.69;5300275;27;20023;-73
2024/01/27 02:55:32;;;;;;;21.15;7.60;;;;;;;0.27;100.00;103557.34;5290223;28;20084;-70
2024/01/27 02:58:04;;;;;;;20.95;7.32;;;;;;;0.22;100.00;103550.38;5288054;28;20019;-70
2024/01/27 03:00:35;;;;;;;17.70;7.22;;;;;;;0.28;100.00;103556.44;5291950;28;20024;-71
2024/01/27 03:03:06;;;;;;;28.80;8.45;;;;;;;0.28;100.00;103554.66;5299316;27;20062;-73
2024/01/27 03:05:37;;;;;;;19.83;8.68;;;;;;;0.23;100.00;103554.75;5295827;28;20023;-74
2024/01/27 03:08:07;;;;;;;26.13;8.90;;;;;;;0.19;100.00;103561.00;5289932;28;20019;-73
2024/01/27 03:10:38;;;;;;;22.45;8.38;;;;;;;0.16;100.00;103569.00;5295563;28;20047;-73
2024/01/27 03:13:09;;;;;;;32.53;8.23;;;;;;;0.10;100.00;103547.13;5287408;27;20047;-75
2024/01/27 03:15:42;;;;;;;31.85;9.60;;;;;;;0.18;100.00;103553.97;5296435;28;20383;-73
2024/01/27 03:18:13;;;;;;;35.70;10.50;;;;;;;0.16;100.00;103553.16;5292094;27;20051;-74
2024/01/27 03:20:44;;;;;;;24.50;9.05;;;;;;;0.14;100.00;103551.44;5287320;28;20683;-73
2024/01/27 03:23:15;;;;;;;29.65;8.73;;;;;;;0.23;100.00;103554.75;5290177;27;20488;-75
2024/01/27 03:25:45;;;;;;;35.47;10.80;;;;;;;0.19;100.00;103550.44;5291278;28;20015;-73
2024/01/27 03:28:16;;;;;;;25.00;8.90;;;;;;;0.13;100.00;103549.72;5287351;27;20079;-73
2024/01/27 03:30:47;;;;;;;29.95;9.75;;;;;;;0.05;100.00;103549.88;5295609;27;20045;-73
2024/01/27 03:33:19;;;;;;;32.13;10.23;;;;;;;-0.01;100.00;103544.72;5294305;27;20468;-73
2024/01/27 03:35:49;;;;;;;24.70;9.27;;;;;;;0.01;100.00;103552.63;5292914;27;20022;-73
2024/01/27 03:38:20;;;;;;;23.92;8.75;;;;;;;0.03;100.00;103546.41;5292831;27;20015;-73
2024/01/27 03:40:51;;;;;;;29.95;10.00;;;;;;;-0.02;100.00;103550.91;5293517;27;20076;-75
2024/01/27 03:43:22;;;;;;;24.50;7.57;;;;;;;-0.10;100.00;103551.06;5298980;27;20015;-73
2024/01/27 03:45:52;;;;;;;27.83;8.75;;;;;;;-0.11;100.00;103548.44;5291681;27;20020;-73
2024/01/27 03:48:23;;;;;;;21.40;7.90;;;;;;;-0.08;100.00;103553.69;5292303;27;20015;-73
2024/01/27 03:50:53;;;;;;;27.48;8.10;;;;;;;-0.08;100.00;103541.34;5297792;27;20070;-74
2024/01/27 03:53:24;;;;;;;19.27;6.88;;;;;;;-0.14;100.00;103546.75;5288104;27;20020;-73
2024/01/27 03:55:58;;;;;;;25.75;9.10;;;;;;;-0.16;100.00;103543.25;5298105;27;20037;-73
2024/01/27 03:58:29;;;;;;;40.40;8.35;;;;;;;0.04;100.00;103540.22;5297905;27;20008;-73
2024/01/27 04:00:59;;;;;;;30.40;7.65;;;;;;;0.08;100.00;103547.16;5295996;27;20034;-74
2024/01/27 04:03:30;;;;;;;31.08;7.60;;;;;;;0.05;100.00;103541.97;5299104;27;20023;-73
2024/01/27 04:06:02;;;;;;;26.33;7.88;;;;;;;-0.06;100.00;103547.44;5296404;27;20023;-73
2024/01/27 04:08:32;;;;;;;24.23;8.23;;;;;;;-0.10;100.00;103560.72;5298172;27;20499;-73
2024/01/27 04:11:03;;;;;;;28.00;7.68;;;;;;;-0.17;100.00;103554.72;5296498;27;20023;-73
2024/01/27 04:13:34;;;;;;;26.00;7.35;;;;;;;-0.22;100.00;103564.50;5297695;27;20015;-73
2024/01/27 04:16:05;;;;;;;20.85;7.45;;;;;;;-0.24;100.00;103553.13;5293698;27;20039;-73
2024/01/27 04:18:38;;;;;;;31.20;7.60;;;;;;;0.01;100.00;103565.81;5294284;27;20016;-73
2024/01/27 04:21:09;;;;;;;27.17;8.05;;;;;;;0.01;100.00;103571.09;5295375;27;20038;-73
2024/01/27 04:23:39;;;;;;;17.75;6.65;;;;;;;-0.04;100.00;103565.91;5293243;27;20027;-73
2024/01/27 04:26:10;;;;;;;23.08;7.65;;;;;;;0.02;100.00;103563.13;5298161;27;20046;-74
2024/01/27 04:28:41;;;;;;;23.25;7.60;;;;;;;-0.09;100.00;103559.84;5291243;27;20023;-73
2024/01/27 04:31:11;;;;;;;26.05;7.20;;;;;;;-0.06;100.00;103565.91;5297371;27;20022;-73
2024/01/27 04:33:42;;;;;;;23.63;7.40;;;;;;;-0.16;100.00;103559.09;5297206;27;20482;-73
2024/01/27 04:36:12;;;;;;;20.00;7.50;;;;;;;-0.14;100.00;103561.72;5291295;27;20031;-75
2024/01/27 04:38:43;;;;;;;21.75;7.10;;;;;;;-0.14;100.00;103553.81;5286725;28;20373;-73
2024/01/27 04:41:14;;;;;;;21.00;7.07;;;;;;;-0.05;100.00;103554.50;5290623;27;20035;-73
2024/01/27 04:43:44;;;;;;;22.70;8.02;;;;;;;0.03;100.00;103559.59;5291787;27;20027;-74
2024/01/27 04:46:15;;;;;;;20.92;8.48;;;;;;;0.02;100.00;103557.84;5289481;27;20106;-73
2024/01/27 04:48:45;;;;;;;19.75;7.20;;;;;;;0.03;100.00;103570.16;5291304;27;20370;-73
2024/01/27 04:51:16;;;;;;;22.98;8.20;;;;;;;0.03;100.00;103564.88;5296570;27;20055;-73
2024/01/27 04:53:46;;;;;;;18.65;6.40;;;;;;;-0.06;100.00;103557.13;5287842;27;20041;-73
2024/01/27 04:56:16;;;;;;;27.77;7.10;;;;;;;-0.17;100.00;103549.44;5292565;27;20027;-74
2024/01/27 04:58:47;;;;;;;25.98;9.80;;;;;;;-0.08;100.00;103543.13;5289571;27;20020;-73
2024/01/27 05:01:17;;;;;;;26.88;8.38;;;;;;;-0.11;100.00;103541.41;5288140;27;20032;-73
2024/01/27 05:03:48;;;;;;;19.85;6.95;;;;;;;-0.15;100.00;103552.94;5294298;27;20027;-74
2024/01/27 05:06:19;;;;;;;27.63;8.05;;;;;;;-0.14;100.00;103540.63;5292267;27;21230;-73
2024/01/27 05:08:49;;;;;;;22.45;7.60;;;;;;;-0.14;100.00;103552.03;5290952;27;20151;-73
2024/01/27 05:11:30;;;;;;;22.35;7.30;;;;;;;-0.22;100.00;103555.72;5284832;28;20434;-73
2024/01/27 05:14:01;;;;;;;29.90;8.48;;;;;;;-0.22;100.00;103553.94;5291130;27;20535;-73
2024/01/27 05:16:33;;;;;;;29.98;7.68;;;;;;;-0.28;100.00;103562.84;5284462;27;20055;-73
2024/01/27 05:19:03;;;;;;;26.75;8.13;;;;;;;-0.31;100.00;103560.25;5289683;27;20491;-74
2024/01/27 05:21:34;;;;;;;33.38;8.68;;;;;;;-0.29;100.00;103563.75;5285626;28;20031;-73
2024/01/27 05:24:05;;;;;;;29.08;10.57;;;;;;;-0.38;100.00;103563.06;5286373;28;20015;-73
2024/01/27 05:26:35;;;;;;;31.38;10.63;;;;;;;-0.35;100.00;103566.53;5296355;27;20027;-72
2024/01/27 05:29:05;;;;;;;31.05;9.80;;;;;;;-0.38;100.00;103563.06;5293930;27;20380;-72
2024/01/27 05:31:36;;;;;;;21.73;9.23;;;;;;;-0.39;100.00;103551.66;5283644;28;20139;-72
2024/01/27 05:34:07;;;;;;;24.55;9.02;;;;;;;-0.39;100.00;103549.00;5286134;28;20024;-70
2024/01/27 05:36:37;;;;;;;33.30;11.52;;;;;;;-0.40;100.00;103543.75;5284921;28;20035;-71
2024/01/27 05:39:08;;;;;;;34.92;10.55;;;;;;;-0.34;100.00;103543.66;5282645;27;20026;-72
2024/01/27 05:41:38;;;;;;;35.30;9.65;;;;;;;-0.39;100.00;103538.47;5289714;27;20039;-71
2024/01/27 05:44:09;;;;;;;22.73;8.25;;;;;;;-0.48;100.00;103545.69;5290634;27;20019;-73
2024/01/27 05:46:39;;;;;;;28.13;8.45;;;;;;;-0.46;100.00;103534.19;5284582;27;20401;-73
2024/01/27 05:49:10;;;;;;;29.08;9.10;;;;;;;-0.47;100.00;103537.72;5291146;27;20076;-74
2024/01/27 05:51:40;;;;;;;30.30;9.43;;;;;;;-0.48;100.00;103536.00;5285775;27;20446;-74
2024/01/27 05:54:14;;;;;;;28.95;9.55;;;;;;;-0.52;100.00;103537.81;5286228;27;20030;-73
2024/01/27 05:56:45;;;;;;;33.33;9.20;;;;;;;-0.47;100.00;103544.78;5287409;27;20109;-73
2024/01/27 05:59:15;;;;;;;29.30;8.48;;;;;;;-0.53;100.00;103553.66;5283482;28;20028;-73
2024/01/27 06:01:46;;;;;;;32.10;9.68;;;;;;;-0.46;100.00;103555.28;5289694;27;20485;-72
2024/01/27 06:04:16;;;;;;;23.65;8.02;;;;;;;-0.46;100.00;103559.69;5285365;27;20048;-74
2024/01/27 06:06:47;;;;;;;30.55;8.35;;;;;;;-0.46;100.00;103546.50;5288834;27;20029;-72
2024/01/27 06:09:17;;;;;;;33.53;10.98;;;;;;;-0.47;100.00;103556.19;5292809;27;20029;-72
2024/01/27 06:11:48;;;;;;;30.48;9.10;;;;;;;-0.46;100.00;103560.56;5289568;27;20031;-74
2024/01/27 06:14:18;;;;;;;28.10;8.15;;;;;;;-0.48;100.00;103557.09;5285390;28;21768;-73
2024/01/27 06:16:51;;;;;;;31.27;9.90;;;;;;;-0.50;100.00;103558.91;5283909;28;20027;-73
2024/01/27 06:19:21;;;;;;;25.95;9.52;;;;;;;-0.46;100.00;103559.69;5284969;28;20788;-73
2024/01/27 06:21:52;;;;;;;33.63;8.98;;;;;;;-0.49;100.00;103572.94;5290813;27;20035;-73
2024/01/27 06:24:22;;;;;;;27.48;9.43;;;;;;;-0.54;100.00;103573.03;5290592;27;20023;-74
2024/01/27 06:26:53;;;;;;;31.25;9.77;;;;;;;-0.59;100.00;103581.03;5294755;27;20030;-73
2024/01/27 06:29:23;;;;;;;31.58;8.65;;;;;;;-0.60;100.00;103584.56;5283819;27;20038;-73
2024/01/27 06:31:53;;;;;;;41.92;10.15;;;;;;;-0.62;100.00;103590.75;5292118;28;20030;-72
2024/01/27 06:34:24;;;;;;;27.40;9.30;;;;;;;-0.62;100.00;103593.38;5290146;27;20023;-73
2024/01/27 06:36:54;;;;;;;34.03;9.57;;;;;;;-0.59;100.00;103586.31;5288549;28;20027;-74
2024/01/27 06:39:25;;;;;;;37.92;11.13;;;;;;;-0.50;100.00;103587.91;5293482;28;20039;-73
2024/01/27 06:41:56;;;;;;;43.42;12.98;;;;;;;-0.35;100.00;103584.09;5292552;28;20035;-73
2024/01/27 06:44:26;;;;;;;41.33;13.20;;;;;;;-0.16;100.00;103589.88;5294295;27;20024;-72
2024/01/27 06:46:57;;;;;;;45.03;13.93;;;;;;;-0.09;100.00;103586.25;5292371;28;20480;-74
2024/01/27 06:49:27;;;;;;;45.75;12.55;;;;;;;-0.05;100.00;103598.47;5276776;28;20035;-73
2024/01/27 06:51:58;;;;;;;46.40;13.80;;;;;;;-0.04;100.00;103598.44;5280239;28;20430;-73
2024/01/27 06:54:28;;;;;;;42.30;11.23;;;;;;;-0.03;100.00;103594.91;5287251;28;20031;-72
2024/01/27 06:57:01;;;;;;;29.20;10.88;;;;;;;-0.07;100.00;103593.22;5279994;28;20023;-71
2024/01/27 06:59:31;;;;;;;36.38;10.98;;;;;;;-0.14;100.00;103586.34;5285731;28;20035;-71
2024/01/27 07:02:02;;;;;;;36.42;10.93;;;;;;;-0.20;100.00;103577.66;5291476;27;20481;-71
2024/01/27 07:04:33;;;;;;;33.28;10.10;;;;;;;-0.27;100.00;103572.50;5285467;27;20431;-73
2024/01/27 07:07:03;;;;;;;27.67;9.15;;;;;;;-0.32;100.00;103574.34;5294217;27;20019;-74
2024/01/27 07:09:33;;;;;;;39.78;9.48;;;;;;;-0.39;100.00;103570.09;5287549;27;20031;-73
2024/01/27 07:12:05;;;;;;;30.02;9.93;;;;;;;-0.42;100.00;103583.34;5291129;27;20020;-73
2024/01/27 07:14:36;;;;;;;30.38;10.13;;;;;;;-0.44;100.00;103579.88;5291868;27;20047;-74
2024/01/27 07:17:06;;;;;;;26.63;9.43;;;;;;;-0.45;100.00;103580.78;5293594;27;20070;-74
2024/01/27 07:19:37;;;;;;;32.08;9.02;;;;;;;-0.44;100.00;103585.16;5291768;27;20032;-73
2024/01/27 07:22:07;;;;;;;27.40;10.13;;;;;;;-0.43;100.00;103584.25;5293938;27;20023;-73
2024/01/27 07:24:38;;;;;;;40.30;10.98;;;;;;;-0.56;100.00;103594.13;5286877;28;20039;-74
2024/01/27 07:27:12;;;;;;;39.08;10.80;;;;;;;-0.50;100.00;103594.94;5286196;28;20023;-72
2024/01/27 07:29:42;;;;;;;34.20;10.85;;;;;;;-0.52;100.00;103592.31;5294529;27;20027;-73
2024/01/27 07:32:13;;;;;;;30.67;10.57;;;;;;;-0.52;100.00;103593.19;5290996;27;20019;-73
2024/01/27 07:34:44;;;;;;;50.88;13.55;;;;;;;-0.50;100.00;103585.28;5294541;27;20031;-73
2024/01/27 07:37:14;;;;;;;51.28;15.52;;;;;;;-0.35;100.00;103576.19;5286087;27;20459;-73
2024/01/27 07:39:45;;;;;;;52.08;16.58;;;;;;;-0.08;100.00;103582.69;5290753;27;20019;-74
2024/01/27 07:42:15;;;;;;;59.22;15.45;;;;;;;0.03;100.00;103585.13;5290260;27;20602;-73
2024/01/27 07:44:46;;;;;;;49.75;14.68;;;;;;;0.07;100.00;103576.25;5292019;27;20084;-74
2024/01/27 07:47:16;;;;;;;49.30;14.05;;;;;;;0.17;100.00;103589.22;5286006;28;20020;-73
2024/01/27 07:49:48;;;;;;;50.20;16.33;;;;;;;0.27;100.00;103579.34;5286399;28;20027;-73
2024/01/27 07:52:20;;;;;;;47.63;14.35;;;;;;;0.33;100.00;103584.47;5282521;28;20027;-73
2024/01/27 07:54:50;;;;;;;55.05;15.13;;;;;;;0.47;100.00;103581.53;5290934;27;20024;-74
2024/01/27 07:57:21;;;;;;;54.90;17.05;;;;;;;0.59;100.00;103580.38;5289926;27;20084;-73
2024/01/27 07:59:51;;;;;;;56.35;16.20;;;;;;;0.87;100.00;103585.91;5291530;27;20032;-73
2024/01/27 08:02:22;;;;;;;48.63;16.52;;;;;;;1.15;100.00;103583.44;5293933;27;20444;-73
2024/01/27 08:04:52;;;;;;;46.45;15.38;;;;;;;1.45;100.00;103581.78;5290410;27;22696;-75
2024/01/27 08:07:23;;;;;;;41.60;14.10;;;;;;;1.70;100.00;103574.91;5293661;27;20036;-71
2024/01/27 08:09:53;;;;;;;38.72;11.95;;;;;;;1.81;100.00;103587.88;5287322;28;20058;-71
2024/01/27 08:12:24;;;;;;;42.40;11.23;;;;;;;2.04;100.00;103587.19;5291178;27;20027;-70
2024/01/27 08:14:54;;;;;;;39.92;10.98;;;;;;;2.28;100.00;103578.53;5287358;28;20476;-70
2024/01/27 08:17:25;;;;;;;34.38;10.60;;;;;;;2.55;100.00;103591.84;5290818;27;20016;-71
2024/01/27 08:19:55;;;;;;;42.22;10.20;;;;;;;2.91;100.00;103594.25;5290134;27;20052;-71
2024/01/27 08:22:26;;;;;;;33.42;10.73;;;;;;;3.17;100.00;103588.97;5287731;27;20026;-71
2024/01/27 08:24:56;;;;;;;28.63;9.45;;;;;;;3.32;100.00;103591.13;5290423;27;20019;-71
2024/01/27 08:27:27;;;;;;;31.02;9.93;;;;;;;3.48;100.00;103595.91;5294177;27;20393;-71
2024/01/27 08:29:57;;;;;;;25.65;9.50;;;;;;;3.76;100.00;103588.66;5290645;27;20042;-70
2024/01/27 08:32:28;;;;;;;28.00;9.98;;;;;;;4.11;100.00;103582.06;5287149;28;20036;-71
2024/01/27 08:34:58;;;;;;;24.52;8.73;;;;;;;4.18;100.00;103587.16;5287348;28;20020;-71
2024/01/27 08:37:29;;;;;;;28.65;9.48;;;;;;;4.23;100.00;103583.41;5286685;28;20472;-73
2024/01/27 08:40:00;;;;;;;30.40;9.70;;;;;;;4.19;100.00;103592.41;5295724;27;20470;-73
2024/01/27 08:42:30;;;;;;;32.08;9.05;;;;;;;3.95;100.00;103590.66;5285097;28;20022;-72
2024/01/27 08:45:01;;;;;;;27.70;9.73;;;;;;;3.90;100.00;103588.19;5293734;27;20033;-71
2024/01/27 08:47:32;;;;;;;29.27;9.70;;;;;;;3.98;100.00;103585.25;5285128;27;20115;-71
2024/01/27 08:50:02;;;;;;;28.00;8.70;;;;;;;4.35;100.00;103590.91;5289661;27;20053;-71
2024/01/27 08:52:33;;;;;;;20.02;8.27;;;;;;;4.72;100.00;103591.25;5286877;28;20433;-71
2024/01/27 08:55:04;;;;;;;28.50;10.38;;;;;;;5.25;100.00;103578.41;5286368;28;20385;-72
2024/01/27 08:57:34;;;;;;;40.63;11.15;;;;;;;5.57;100.00;103585.03;5287332;27;20107;-71
2024/01/27 09:00:05;;;;;;;22.23;8.35;;;;;;;6.21;100.00;103586.59;5292480;27;20057;-71
2024/01/27 09:02:36;;;;;;;25.80;8.65;;;;;;;6.65;100.00;103591.66;5292745;27;20040;-73
2024/01/27 09:05:07;;;;;;;20.48;8.02;;;;;;;6.78;100.00;103607.91;5286349;27;20369;-70
2024/01/27 09:07:37;;;;;;;32.58;8.20;;;;;;;7.19;100.00;103595.22;5288097;27;20028;-71
2024/01/27 09:10:09;;;;;;;24.15;7.40;;;;;;;7.43;100.00;103603.75;5289420;27;20023;-73
2024/01/27 09:12:39;;;;;;;19.15;7.18;;;;;;;7.83;100.00;103602.56;5286982;27;20446;-72
2024/01/27 09:15:10;;;;;;;24.08;7.40;;;;;;;8.16;100.00;103599.03;5287538;27;20019;-74
2024/01/27 09:17:42;;;;;;;20.27;6.70;;;;;;;8.45;100.00;103610.84;5286778;27;20035;-74
2024/01/27 09:20:13;;;;;;;24.60;7.45;;;;;;;8.66;100.00;103611.44;5292841;27;20031;-74
2024/01/27 09:22:47;;;;;;;26.60;7.68;;;;;;;8.99;100.00;103609.53;5283216;28;20066;-74
2024/01/27 09:25:17;;;;;;;23.90;7.68;;;;;;;9.19;100.00;103618.22;5293675;27;20027;-74
2024/01/27 09:27:48;;;;;;;24.40;7.60;;;;;;;9.02;100.00;103621.88;5284680;27;20026;-76
2024/01/27 09:30:18;;;;;;;21.48;7.40;;;;;;;8.90;100.00;103610.06;5287314;27;20064;-75
2024/01/27 09:32:49;;;;;;;18.88;6.82;;;;;;;9.15;100.00;103614.00;5287961;27;20023;-74
2024/01/27 09:35:20;;;;;;;17.95;6.85;;;;;;;9.43;100.00;103608.72;5286904;27;20038;-71
2024/01/27 09:37:50;;;;;;;22.73;6.38;;;;;;;9.51;100.00;103614.47;5289432;27;20024;-72
2024/01/27 09:40:21;;;;;;;22.70;6.60;;;;;;;9.56;100.00;103620.44;5286039;27;20023;-72
2024/01/27 09:42:53;;;;;;;24.13;7.53;;;;;;;9.31;100.00;103631.75;5283571;27;20024;-72
2024/01/27 09:45:23;;;;;;;24.52;7.45;;;;;;;9.69;100.00;103639.34;5287374;27;20035;-72
2024/01/27 09:47:59;;;;;;;29.80;8.68;;;;;;;9.91;100.00;103638.88;5288316;27;20026;-74
2024/01/27 09:50:29;;;;;;;28.02;9.65;;;;;;;9.70;100.00;103641.06;5282866;27;20015;-72
2024/01/27 09:53:00;;;;;;;23.70;8.27;;;;;;;9.74;100.00;103639.91;5288011;27;20016;-74
2024/01/27 09:55:31;;;;;;;23.90;7.88;;;;;;;10.02;100.00;103633.72;5292844;27;20024;-72
2024/01/27 09:58:01;;;;;;;24.88;8.40;;;;;;;10.02;100.00;103633.72;5289023;27;20064;-72
2024/01/27 10:00:35;;;;;;;28.30;7.85;;;;;;;10.15;100.00;103641.00;5290716;27;20038;-72
2024/01/27 10:03:06;;;;;;;26.25;8.15;;;;;;;9.97;100.00;103634.94;5287744;27;20385;-72
2024/01/27 10:05:37;;;;;;;27.67;8.10;;;;;;;9.87;100.00;103640.00;5288168;27;20023;-72
2024/01/27 10:08:08;;;;;;;24.67;6.95;;;;;;;9.75;100.00;103651.50;5292281;27;20027;-72
2024/01/27 10:10:38;;;;;;;26.80;6.70;;;;;;;9.67;100.00;103645.72;5290470;27;20526;-73
2024/01/27 10:13:12;;;;;;;26.13;7.40;;;;;;;9.39;100.00;103651.84;5287870;28;20387;-72
2024/01/27 10:15:43;;;;;;;23.67;6.50;;;;;;;9.39;100.00;103655.41;5290943;27;20427;-73
2024/01/27 10:18:15;;;;;;;27.63;7.78;;;;;;;8.95;100.00;103658.00;5294040;27;20089;-72
2024/01/27 10:20:47;;;;;;;24.10;6.88;;;;;;;8.73;100.00;103658.31;5289344;27;20027;-72
2024/01/27 10:23:18;;;;;;;26.95;7.28;;;;;;;8.85;100.00;103660.31;5282264;27;20054;-72
2024/01/27 10:25:49;;;;;;;23.58;6.80;;;;;;;8.74;100.00;103654.72;5290273;27;20055;-72
2024/01/27 10:28:20;;;;;;;32.45;6.95;;;;;;;8.73;100.00;103661.84;5281339;28;20054;-72
2024/01/27 10:30:50;;;;;;;28.05;6.50;;;;;;;8.77;100.00;103651.84;5286916;28;20465;-72
2024/01/27 10:33:21;;;;;;;25.63;6.95;;;;;;;8.74;100.00;103649.34;5291237;27;20485;-72
2024/01/27 10:35:58;;;;;;;27.52;7.43;;;;;;;8.89;100.00;103655.66;5287702;28;20396;-72
2024/01/27 10:38:36;;;;;;;27.95;10.10;;;;;;;8.86;100.00;103645.97;5287834;27;20023;-72
2024/01/27 10:41:10;;;;;;;32.38;6.70;;;;;;;8.80;100.00;103652.53;5279394;27;20019;-72
2024/01/27 10:43:42;;;;;;;20.43;6.20;;;;;;;8.81;100.00;103648.91;5271259;28;20039;-75
2024/01/27 10:46:14;;;;;;;24.50;7.10;;;;;;;9.00;100.00;103642.53;5273363;27;20081;-75
2024/01/27 10:48:53;;;;;;;25.17;6.85;;;;;;;8.89;100.00;103635.09;5287267;27;20028;-72
2024/01/27 10:51:32;;;;;;;28.58;6.18;;;;;;;8.94;100.00;103640.19;5288656;28;20049;-72
2024/01/27 10:54:03;;;;;;;30.15;6.57;;;;;;;8.95;100.00;103650.81;5290616;27;20114;-72
2024/01/27 10:56:37;;;;;;;34.03;6.32;;;;;;;8.96;100.00;103649.84;5283953;28;20024;-73
2024/01/27 10:59:09;;;;;;;22.27;6.38;;;;;;;8.97;100.00;103651.56;5290905;27;20102;-72
2024/01/27 11:01:41;;;;;;;20.17;5.60;;;;;;;9.00;100.00;103639.84;5291071;27;20039;-72
2024/01/27 11:04:13;;;;;;;18.80;6.50;;;;;;;9.00;100.00;103643.38;5283997;27;20066;-72
2024/01/27 11:06:44;;;;;;;18.70;5.50;;;;;;;9.17;100.00;103633.50;5284100;27;20553;-74
2024/01/27 11:09:15;;;;;;;26.33;7.28;;;;;;;9.21;100.00;103633.22;5290573;27;20028;-73
2024/01/27 11:11:47;;;;;;;29.35;5.72;;;;;;;9.06;100.00;103634.13;5279602;27;20507;-73
2024/01/27 11:14:21;;;;;;;18.67;4.72;;;;;;;8.85;100.00;103619.31;5269106;27;20024;-74
2024/01/27 11:16:58;;;;;;;28.58;6.63;;;;;;;9.15;100.00;103624.69;5255211;28;20023;-76
2024/01/27 11:19:34;;;;;;;22.63;6.13;;;;;;;9.28;100.00;103620.34;5284588;27;20019;-73
2024/01/27 11:22:05;;;;;;;32.58;7.47;;;;;;;9.16;100.00;103629.97;5277455;28;20133;-74
2024/01/27 11:24:36;;;;;;;18.90;4.93;;;;;;;9.18;100.00;103625.38;5276268;28;20114;-74
2024/01/27 11:27:06;;;;;;;24.27;5.70;;;;;;;9.17;100.00;103623.66;5275068;28;20020;-74
2024/01/27 11:29:48;;;;;;;18.50;6.13;;;;;;;9.27;100.00;103615.94;5282945;27;20038;-74
2024/01/27 11:32:20;;;;;;;22.50;4.65;;;;;;;9.30;100.00;103610.41;5273814;28;20092;-76